Time;durP1;ratioP1;P1;durP2;ratioP2;P2;SDS_P1;SDS_P2;PMS_P1;PMS_P2;Temp;Humidity;BMP_temperature;BMP_pressure;BME280_temperature;BME280_humidity;BME280_pressure;Samples;Min_cycle;Max_cycle;Signal;HPM_P1;HPM_P2
2022/01/02 00:02:06;;;;;;;;;;;;;;;12.69;100.00;99263.41;5014016;28;19948;-64
2022/01/02 00:04:32;;;;;;;;;;;;;;;12.63;100.00;99253.28;5012788;28;20343;-65
2022/01/02 00:06:59;;;;;;;;;;;;;;;12.54;100.00;99234.66;5006706;28;19920;-65
2022/01/02 00:09:25;;;;;;;;;;;;;;;12.34;100.00;99235.34;5026657;28;19971;-64
2022/01/02 00:11:50;;;;;;;;;;;;;;;12.40;100.00;99216.19;5029582;28;19925;-65
2022/01/02 00:14:16;;;;;;;;;;;;;;;12.33;100.00;99217.31;5021294;28;19909;-65
2022/01/02 00:16:42;;;;;;;;;;;;;;;12.53;100.00;99214.03;5012666;28;19921;-65
2022/01/02 00:19:16;;;;;;;;;;;;;;;12.49;100.00;99226.19;5013331;28;19972;-65
2022/01/02 00:21:45;;;;;;;;;;;;;;;12.70;100.00;99223.72;5020833;28;20353;-65
2022/01/02 00:24:13;;;;;;;;;;;;;;;12.64;100.00;99223.97;5018467;28;19913;-65
2022/01/02 00:26:42;;;;;;;;;;;;;;;12.80;100.00;99222.50;5024368;28;20334;-65
2022/01/02 00:29:08;;;;;;;;;;;;;;;12.30;100.00;99207.94;5020219;28;20004;-65
2022/01/02 00:31:33;;;;;;;;;;;;;;;12.56;100.00;99207.00;5026461;28;20357;-65
2022/01/02 00:33:59;;;;;;;;;;;;;;;12.50;100.00;99217.56;5025352;28;19917;-64
2022/01/02 00:36:25;;;;;;;;;;;;;;;12.43;100.00;99205.78;5026753;28;19917;-65
2022/01/02 00:38:50;;;;;;;;;;;;;;;12.51;100.00;99197.75;5026578;28;19957;-65
2022/01/02 00:41:17;;;;;;;;;;;;;;;12.37;100.00;99190.50;5023672;28;19921;-65
2022/01/02 00:43:49;;;;;;;;;;;;;;;12.55;100.00;99183.81;5012535;28;20011;-65
2022/01/02 00:46:15;;;;;;;;;;;;;;;12.59;100.00;99194.88;5010436;28;19917;-65
2022/01/02 00:48:42;;;;;;;;;;;;;;;12.47;100.00;99193.56;5029991;28;19913;-64
2022/01/02 00:51:26;;;;;;;;;;;;;;;12.66;100.00;99184.25;5020294;28;20023;-65
2022/01/02 00:53:51;;;;;;;;;;;;;;;12.70;100.00;99187.56;5022152;28;19956;-64
2022/01/02 00:56:18;;;;;;;;;;;;;;;12.72;100.00;99175.41;5030068;28;19947;-65
2022/01/02 00:58:53;;;;;;;;;;;;;;;12.70;100.00;99175.50;5022538;28;20007;-68
2022/01/02 01:01:28;;;;;;;;;;;;;;;12.75;100.00;99176.16;5000232;28;19917;-68
2022/01/02 01:03:53;;;;;;;;;;;;;;;12.82;100.00;99191.41;5021039;28;19917;-68
2022/01/02 01:06:19;;;;;;;;;;;;;;;12.79;100.00;99191.53;5021277;28;20440;-69
2022/01/02 01:08:45;;;;;;;;;;;;;;;12.81;100.00;99195.75;5007316;28;19916;-68
2022/01/02 01:11:11;;;;;;;;;;;;;;;12.97;100.00;99201.16;5022746;28;19925;-68
2022/01/02 01:13:37;;;;;;;;;;;;;;;12.93;100.00;99200.47;5018238;28;19974;-68
2022/01/02 01:16:03;;;;;;;;;;;;;;;12.88;100.00;99202.34;5019746;28;19930;-68
2022/01/02 01:18:28;;;;;;;;;;;;;;;12.87;100.00;99199.84;5021713;28;20000;-68
2022/01/02 01:20:54;;;;;;;;;;;;;;;12.94;100.00;99201.31;5019398;28;19924;-68
2022/01/02 01:23:20;;;;;;;;;;;;;;;13.02;100.00;99208.75;5017942;28;19921;-68
2022/01/02 01:25:46;;;;;;;;;;;;;;;12.88;100.00;99209.28;5017316;28;20342;-68
2022/01/02 01:28:12;;;;;;;;;;;;;;;12.81;100.00;99211.25;5019435;28;20047;-68
2022/01/02 01:30:37;;;;;;;;;;;;;;;12.88;100.00;99217.03;5019953;28;20465;-68
2022/01/02 01:33:03;;;;;;;;;;;;;;;13.03;100.00;99220.78;5018142;28;19967;-68
2022/01/02 01:35:28;;;;;;;;;;;;;;;13.04;100.00;99236.22;5021111;28;19924;-68
2022/01/02 01:37:54;;;;;;;;;;;;;;;12.91;100.00;99238.44;5015326;28;19961;-68
2022/01/02 01:40:19;;;;;;;;;;;;;;;12.84;100.00;99238.72;5020922;28;19925;-68
2022/01/02 01:42:56;;;;;;;;;;;;;;;12.89;100.00;99226.50;5005334;28;19987;-68
2022/01/02 01:47:54;;;;;;;;;;;;;;;12.84;100.00;99249.94;5015770;28;20440;-68
2022/01/02 01:50:20;;;;;;;;;;;;;;;12.92;100.00;99245.28;5018883;28;19944;-68
2022/01/02 01:52:46;;;;;;;;;;;;;;;12.90;100.00;99243.66;5019241;28;20382;-68
2022/01/02 01:55:12;;;;;;;;;;;;;;;13.07;100.00;99232.69;5021949;28;20015;-68
2022/01/02 01:57:38;;;;;;;;;;;;;;;12.98;100.00;99244.22;5020607;28;19921;-68
2022/01/02 02:00:04;;;;;;;;;;;;;;;13.01;100.00;99244.09;5021209;28;20040;-68
2022/01/02 02:02:30;;;;;;;;;;;;;;;12.85;100.00;99238.69;5023810;28;20390;-68
2022/01/02 02:04:55;;;;;;;;;;;;;;;13.01;100.00;99245.84;5026734;28;19960;-68
2022/01/02 02:07:27;;;;;;;;;;;;;;;12.74;100.00;99245.97;5024669;28;19917;-68
2022/01/02 02:12:51;;;;;;;;;;;;;;;12.94;100.00;99222.81;4993068;28;19928;-68
2022/01/02 02:15:16;;;;;;;;;;;;;;;12.76;100.00;99213.19;5023836;28;20012;-68
2022/01/02 02:17:46;;;;;;;;;;;;;;;12.88;100.00;99212.69;5021724;28;19918;-68
2022/01/02 02:20:21;;;;;;;;;;;;;;;13.05;100.00;99213.81;5025886;28;19979;-68
2022/01/02 02:22:48;;;;;;;;;;;;;;;12.85;100.00;99212.81;5010244;28;19917;-68
2022/01/02 02:25:17;;;;;;;;;;;;;;;12.78;100.00;99216.53;5020979;28;19932;-68
2022/01/02 02:28:11;;;;;;;;;;;;;;;12.93;100.00;99205.63;5020253;28;20007;-68
2022/01/02 02:30:39;;;;;;;;;;;;;;;12.84;100.00;99230.97;5003020;28;19925;-68
2022/01/02 02:33:05;;;;;;;;;;;;;;;12.84;100.00;99211.16;5022893;28;19928;-68
2022/01/02 02:35:31;;;;;;;;;;;;;;;12.88;100.00;99206.69;5021093;28;20312;-68
2022/01/02 02:37:56;;;;;;;;;;;;;;;12.69;100.00;99207.38;5023296;28;19943;-68
2022/01/02 02:40:24;;;;;;;;;;;;;;;12.78;100.00;99216.53;5023424;28;19925;-68
2022/01/02 02:42:54;;;;;;;;;;;;;;;12.94;100.00;99207.31;5023526;28;19917;-68
2022/01/02 02:50:56;;;;;;;;;;;;;;;12.90;100.00;99189.38;5019508;28;20353;-68
2022/01/02 02:53:22;;;;;;;;;;;;;;;13.14;100.00;99182.44;5022794;28;19917;-68
2022/01/02 02:55:54;;;;;;;;;;;;;;;12.46;100.00;99190.16;5019733;28;20017;-68
2022/01/02 03:00:59;;;;;;;;;;;;;;;12.92;100.00;99198.75;5022075;28;20078;-69
2022/01/02 03:03:25;;;;;;;;;;;;;;;12.81;100.00;99219.00;5023130;28;19928;-68
2022/01/02 03:05:51;;;;;;;;;;;;;;;12.79;100.00;99213.03;5023631;28;19937;-68
2022/01/02 03:08:16;;;;;;;;;;;;;;;12.89;100.00;99209.22;5021962;28;19971;-68
2022/01/02 03:10:41;;;;;;;;;;;;;;;12.92;100.00;99193.59;5021506;28;19932;-68
2022/01/02 03:13:07;;;;;;;;;;;;;;;12.71;100.00;99202.19;5020486;28;20371;-68
2022/01/02 03:15:32;;;;;;;;;;;;;;;13.03;100.00;99184.59;5021958;28;19964;-68
2022/01/02 03:17:58;;;;;;;;;;;;;;;12.94;100.00;99185.78;5021233;28;20003;-68
2022/01/02 03:20:23;;;;;;;;;;;;;;;13.13;100.00;99175.56;5024054;28;20400;-68
2022/01/02 03:22:48;;;;;;;;;;;;;;;13.23;100.00;99166.56;5022307;28;19975;-68
2022/01/02 03:25:14;;;;;;;;;;;;;;;12.95;100.00;99159.03;5020350;28;19921;-68
2022/01/02 03:27:42;;;;;;;;;;;;;;;13.11;100.00;99143.75;5020682;28;20394;-68
2022/01/02 03:30:08;;;;;;;;;;;;;;;12.98;100.00;99146.84;5022198;28;19925;-68
2022/01/02 03:32:34;;;;;;;;;;;;;;;13.01;100.00;99132.09;5021552;28;19925;-68
2022/01/02 03:34:59;;;;;;;;;;;;;;;12.80;100.00;99142.38;5021218;28;19917;-68
2022/01/02 03:37:29;;;;;;;;;;;;;;;13.10;100.00;99149.84;5025618;28;19916;-68
2022/01/02 03:39:57;;;;;;;;;;;;;;;12.59;100.00;99140.59;5024716;28;19924;-68
2022/01/02 03:42:22;;;;;;;;;;;;;;;13.09;100.00;99142.97;5021752;28;19918;-68
2022/01/02 03:44:48;;;;;;;;;;;;;;;12.64;100.00;99142.13;5019271;28;20005;-68
2022/01/02 03:47:13;;;;;;;;;;;;;;;12.89;100.00;99141.19;5018937;28;19926;-68
2022/01/02 03:49:38;;;;;;;;;;;;;;;13.08;100.00;99136.97;5020777;28;19927;-68
2022/01/02 03:52:06;;;;;;;;;;;;;;;13.10;100.00;99131.75;5020500;28;20228;-68
2022/01/02 03:54:32;;;;;;;;;;;;;;;13.10;100.00;99135.16;5017994;28;20002;-68
2022/01/02 03:56:57;;;;;;;;;;;;;;;13.11;100.00;99136.00;5019729;28;19917;-68
2022/01/02 03:59:22;;;;;;;;;;;;;;;12.68;100.00;99129.91;5020404;28;19944;-68
2022/01/02 04:01:48;;;;;;;;;;;;;;;12.73;100.00;99131.44;5023309;28;20007;-68
2022/01/02 04:04:13;;;;;;;;;;;;;;;12.84;100.00;99133.63;5021826;28;20350;-68
2022/01/02 04:06:39;;;;;;;;;;;;;;;12.94;100.00;99128.91;5022155;28;20015;-68
2022/01/02 04:09:04;;;;;;;;;;;;;;;12.81;100.00;99138.88;5018772;28;19921;-68
2022/01/02 04:11:30;;;;;;;;;;;;;;;13.04;100.00;99139.72;5023529;28;19932;-68
2022/01/02 04:13:55;;;;;;;;;;;;;;;13.08;100.00;99146.47;5019237;28;20355;-68
2022/01/02 04:16:21;;;;;;;;;;;;;;;13.01;100.00;99140.69;5023089;28;19935;-68
2022/01/02 04:18:46;;;;;;;;;;;;;;;12.98;100.00;99146.00;5021269;28;20295;-68
2022/01/02 04:21:12;;;;;;;;;;;;;;;12.78;100.00;99133.84;5020657;28;19951;-68
2022/01/02 04:23:38;;;;;;;;;;;;;;;13.13;100.00;99119.50;5022054;28;19924;-68
2022/01/02 04:26:04;;;;;;;;;;;;;;;13.08;100.00;99118.03;5019902;28;20351;-68
2022/01/02 04:28:29;;;;;;;;;;;;;;;12.71;100.00;99106.56;5021398;28;20437;-68
2022/01/02 04:30:54;;;;;;;;;;;;;;;12.91;100.00;99106.63;5019628;28;19925;-68
2022/01/02 04:33:20;;;;;;;;;;;;;;;12.85;100.00;99093.09;5020518;28;20387;-68
2022/01/02 04:35:45;;;;;;;;;;;;;;;13.11;100.00;99111.00;5021738;28;19917;-68
2022/01/02 04:38:13;;;;;;;;;;;;;;;13.14;100.00;99100.53;5021282;28;19928;-68
2022/01/02 04:40:38;;;;;;;;;;;;;;;13.03;100.00;99099.28;5021538;28;19921;-68
2022/01/02 04:43:03;;;;;;;;;;;;;;;12.75;100.00;99102.97;5020631;28;19967;-68
2022/01/02 04:45:29;;;;;;;;;;;;;;;12.91;100.00;99103.22;5004895;28;19961;-68
2022/01/02 04:47:55;;;;;;;;;;;;;;;12.79;100.00;99099.34;5020761;28;19950;-68
2022/01/02 04:50:20;;;;;;;;;;;;;;;12.75;100.00;99090.88;5022869;28;19929;-68
2022/01/02 04:52:45;;;;;;;;;;;;;;;13.00;100.00;99087.31;5018031;28;19917;-68
2022/01/02 04:55:11;;;;;;;;;;;;;;;13.25;100.00;99087.16;5017089;28;19928;-68
2022/01/02 04:57:36;;;;;;;;;;;;;;;13.15;100.00;99085.84;5021063;28;19922;-68
2022/01/02 05:00:03;;;;;;;;;;;;;;;13.35;100.00;99082.47;5020375;28;19992;-68
2022/01/02 05:02:28;;;;;;;;;;;;;;;12.95;100.00;99084.94;5021870;28;19921;-68
2022/01/02 05:04:53;;;;;;;;;;;;;;;12.98;100.00;99089.13;5018882;28;19924;-66
2022/01/02 05:07:19;;;;;;;;;;;;;;;12.92;100.00;99092.78;5008686;28;20814;-65
2022/01/02 05:09:44;;;;;;;;;;;;;;;13.21;100.00;99095.09;5009518;28;19932;-65
2022/01/02 05:12:10;;;;;;;;;;;;;;;13.45;100.00;99101.84;5016091;28;19955;-65
2022/01/02 05:14:36;;;;;;;;;;;;;;;13.18;100.00;99088.28;5021693;28;19950;-65
2022/01/02 05:17:01;;;;;;;;;;;;;;;12.97;100.00;99096.00;5018218;28;19921;-65
2022/01/02 05:19:26;;;;;;;;;;;;;;;12.88;100.00;99100.72;5019177;28;19972;-65
2022/01/02 05:21:52;;;;;;;;;;;;;;;13.03;100.00;99094.09;5020788;28;19932;-65
2022/01/02 05:24:17;;;;;;;;;;;;;;;13.07;100.00;99093.06;5019948;28;20302;-65
2022/01/02 05:26:43;;;;;;;;;;;;;;;12.87;100.00;99099.06;5018506;28;19913;-65
2022/01/02 05:29:08;;;;;;;;;;;;;;;12.86;100.00;99098.19;5001393;28;19924;-64
2022/01/02 05:31:34;;;;;;;;;;;;;;;13.03;100.00;99101.88;5018546;28;20037;-64
2022/01/02 05:33:59;;;;;;;;;;;;;;;13.29;100.00;99099.06;5019484;28;19925;-64
2022/01/02 05:36:25;;;;;;;;;;;;;;;13.09;100.00;99109.34;5018485;28;19925;-65
2022/01/02 05:38:51;;;;;;;;;;;;;;;13.10;100.00;99113.63;5023742;28;19960;-64
2022/01/02 05:41:16;;;;;;;;;;;;;;;13.05;100.00;99110.41;5022023;28;19917;-65
2022/01/02 05:43:42;;;;;;;;;;;;;;;13.14;100.00;99117.78;5023476;28;19944;-65
2022/01/02 05:46:07;;;;;;;;;;;;;;;12.85;100.00;99114.59;5022782;28;19931;-64
2022/01/02 05:48:36;;;;;;;;;;;;;;;12.66;100.00;99104.16;5021728;28;19918;-65
2022/01/02 05:51:01;;;;;;;;;;;;;;;12.89;100.00;99100.66;5023122;28;19932;-64
2022/01/02 05:53:28;;;;;;;;;;;;;;;12.94;100.00;99096.16;5022670;28;19916;-65
2022/01/02 05:55:53;;;;;;;;;;;;;;;12.97;100.00;99077.91;5021918;28;19921;-64
2022/01/02 05:58:19;;;;;;;;;;;;;;;13.15;100.00;99070.31;5022911;28;20452;-65
2022/01/02 06:00:44;;;;;;;;;;;;;;;12.86;100.00;99069.75;5020382;28;19928;-64
2022/01/02 06:03:09;;;;;;;;;;;;;;;12.88;100.00;99069.72;5023913;28;19917;-64
2022/01/02 06:05:35;;;;;;;;;;;;;;;12.83;100.00;99064.72;5021433;28;19952;-64
2022/01/02 06:08:02;;;;;;;;;;;;;;;12.86;100.00;99062.00;5023237;28;19970;-65
2022/01/02 06:10:27;;;;;;;;;;;;;;;13.06;100.00;99050.84;5023101;28;19921;-64
2022/01/02 06:12:52;;;;;;;;;;;;;;;13.06;100.00;99056.03;5020494;28;19940;-64
2022/01/02 06:15:18;;;;;;;;;;;;;;;12.86;100.00;99053.41;5024502;28;19971;-64
2022/01/02 06:17:43;;;;;;;;;;;;;;;12.91;100.00;99051.50;5005857;28;19972;-64
2022/01/02 06:20:09;;;;;;;;;;;;;;;12.72;100.00;99041.06;5023128;28;19921;-65
2022/01/02 06:22:34;;;;;;;;;;;;;;;12.82;100.00;99039.78;5031661;28;19944;-65
2022/01/02 06:24:59;;;;;;;;;;;;;;;12.69;100.00;99042.03;5032702;28;19924;-65
2022/01/02 06:27:25;;;;;;;;;;;;;;;12.89;100.00;99028.28;5022496;28;19913;-65
2022/01/02 06:29:50;;;;;;;;;;;;;;;12.72;100.00;99035.88;5029433;28;19951;-64
2022/01/02 06:32:16;;;;;;;;;;;;;;;12.70;100.00;99032.50;5018873;28;20298;-64
2022/01/02 06:34:41;;;;;;;;;;;;;;;12.68;100.00;99032.59;5019913;28;19924;-64
2022/01/02 06:37:06;;;;;;;;;;;;;;;12.90;100.00;99022.22;5026057;28;19920;-64
2022/01/02 06:39:32;;;;;;;;;;;;;;;12.89;100.00;99028.28;5011765;28;19920;-64
2022/01/02 06:41:57;;;;;;;;;;;;;;;12.88;100.00;99021.44;5026522;28;19914;-65
2022/01/02 06:44:23;;;;;;;;;;;;;;;12.65;100.00;99024.13;5030020;28;19944;-64
2022/01/02 06:46:50;;;;;;;;;;;;;;;13.04;100.00;99025.97;5021892;28;19967;-65
2022/01/02 06:49:15;;;;;;;;;;;;;;;12.70;100.00;99027.34;5021510;28;19924;-64
2022/01/02 06:51:41;;;;;;;;;;;;;;;12.78;100.00;99020.13;5019869;28;19925;-65
2022/01/02 06:54:06;;;;;;;;;;;;;;;13.18;100.00;99029.69;5021713;28;20412;-65
2022/01/02 06:56:31;;;;;;;;;;;;;;;12.86;100.00;99010.31;5022947;28;19970;-66
2022/01/02 06:58:57;;;;;;;;;;;;;;;12.62;100.00;99013.91;5009942;28;20291;-66
2022/01/02 07:01:22;;;;;;;;;;;;;;;12.78;100.00;98996.88;5023048;28;19917;-66
2022/01/02 07:03:48;;;;;;;;;;;;;;;12.72;100.00;98986.78;5021646;28;19917;-66
2022/01/02 07:06:14;;;;;;;;;;;;;;;12.82;100.00;98992.41;5022777;28;19917;-66
2022/01/02 07:08:39;;;;;;;;;;;;;;;12.65;100.00;98988.78;5022128;28;19953;-67
2022/01/02 07:11:07;;;;;;;;;;;;;;;12.56;100.00;98974.47;5022139;28;20015;-66
2022/01/02 07:13:32;;;;;;;;;;;;;;;12.63;100.00;98969.06;5023776;28;19925;-66
2022/01/02 07:15:58;;;;;;;;;;;;;;;12.45;100.00;98965.50;5019308;28;19924;-66
2022/01/02 07:18:23;;;;;;;;;;;;;;;12.48;100.00;98958.47;5023979;28;19921;-66
2022/01/02 07:20:48;;;;;;;;;;;;;;;12.67;100.00;98955.97;5021871;28;19992;-66
2022/01/02 07:23:14;;;;;;;;;;;;;;;12.44;100.00;98951.75;5010616;28;20387;-66
2022/01/02 07:25:40;;;;;;;;;;;;;;;12.28;100.00;98964.44;5005475;28;19921;-66
2022/01/02 07:28:06;;;;;;;;;;;;;;;12.56;99.98;98958.16;5020732;28;19920;-66
2022/01/02 07:30:31;;;;;;;;;;;;;;;12.65;99.21;98962.09;5019393;28;19948;-66
2022/01/02 07:33:01;;;;;;;;;;;;;;;12.58;100.00;98961.50;5024188;28;19921;-67
2022/01/02 07:35:28;;;;;;;;;;;;;;;12.34;100.00;98953.88;5022170;28;19967;-67
2022/01/02 07:37:53;;;;;;;;;;;;;;;12.28;99.63;98958.44;5019718;28;19960;-66
2022/01/02 07:40:18;;;;;;;;;;;;;;;12.27;98.03;98954.16;5017688;28;20638;-66
2022/01/02 07:42:44;;;;;;;;;;;;;;;12.12;96.63;98953.88;5001545;28;19940;-66
2022/01/02 07:45:09;;;;;;;;;;;;;;;12.60;96.08;98958.88;5021882;28;19921;-67
2022/01/02 07:47:35;;;;;;;;;;;;;;;12.49;98.58;98946.41;5022974;28;20035;-67
2022/01/02 07:50:00;;;;;;;;;;;;;;;12.34;98.28;98935.78;5007389;28;19921;-67
2022/01/02 07:52:25;;;;;;;;;;;;;;;12.33;97.51;98925.50;5018171;28;19917;-67
2022/01/02 07:54:51;;;;;;;;;;;;;;;12.45;94.52;98913.84;5017619;28;19925;-67
2022/01/02 07:57:16;;;;;;;;;;;;;;;12.08;96.10;98905.84;5020742;28;20424;-67
2022/01/02 07:59:42;;;;;;;;;;;;;;;11.96;92.53;98896.00;5021232;28;19925;-67
2022/01/02 08:02:07;;;;;;;;;;;;;;;12.04;90.63;98908.59;5017605;28;19921;-67
2022/01/02 08:04:32;;;;;;;;;;;;;;;12.10;91.32;98913.53;5018882;28;19972;-67
2022/01/02 08:06:58;;;;;;;;;;;;;;;12.27;91.25;98915.41;5023061;28;19917;-67
2022/01/02 08:09:23;;;;;;;;;;;;;;;12.25;91.79;98918.09;5020536;28;19995;-67
2022/01/02 08:11:49;;;;;;;;;;;;;;;12.06;90.82;98920.53;5017781;28;20263;-67
2022/01/02 08:14:15;;;;;;;;;;;;;;;12.08;90.83;98911.00;5002440;28;19952;-67
2022/01/02 08:16:40;;;;;;;;;;;;;;;11.79;89.72;98901.81;5019771;28;19917;-66
2022/01/02 08:19:06;;;;;;;;;;;;;;;11.90;91.83;98903.97;5020643;28;20294;-67
2022/01/02 08:21:31;;;;;;;;;;;;;;;11.92;92.11;98907.34;5018114;28;20004;-67
2022/01/02 08:23:57;;;;;;;;;;;;;;;12.11;91.44;98913.47;5019332;28;19972;-67
2022/01/02 08:26:23;;;;;;;;;;;;;;;11.96;94.24;98896.00;5017847;28;19959;-67
2022/01/02 08:28:49;;;;;;;;;;;;;;;12.21;93.12;98908.78;5006622;28;19917;-66
2022/01/02 08:31:14;;;;;;;;;;;;;;;12.37;95.59;98890.91;5021766;28;20371;-67
2022/01/02 08:33:40;;;;;;;;;;;;;;;12.43;98.46;98880.34;5019449;28;19924;-66
2022/01/02 08:36:06;;;;;;;;;;;;;;;12.41;100.00;98876.97;5021932;28;19917;-67
2022/01/02 08:38:31;;;;;;;;;;;;;;;12.32;100.00;98852.38;5018186;28;20287;-66
2022/01/02 08:40:57;;;;;;;;;;;;;;;12.17;100.00;98840.09;5020674;28;19921;-67
2022/01/02 08:43:22;;;;;;;;;;;;;;;12.07;100.00;98826.72;5020020;28;19966;-67
2022/01/02 08:45:48;;;;;;;;;;;;;;;12.11;100.00;98807.63;5021169;28;20034;-66
2022/01/02 08:48:13;;;;;;;;;;;;;;;12.21;100.00;98784.03;5016814;28;20334;-67
2022/01/02 08:50:39;;;;;;;;;;;;;;;12.29;100.00;98774.19;5018177;28;19964;-67
2022/01/02 08:53:04;;;;;;;;;;;;;;;12.41;100.00;98771.09;5017529;28;19921;-67
2022/01/02 08:55:29;;;;;;;;;;;;;;;12.27;100.00;98768.25;5025448;28;19913;-65
2022/01/02 08:57:55;;;;;;;;;;;;;;;12.32;100.00;98763.75;5025105;28;20347;-67
2022/01/02 09:00:21;;;;;;;;;;;;;;;12.25;100.00;98755.44;5010079;28;19991;-66
2022/01/02 09:02:47;;;;;;;;;;;;;;;12.43;100.00;98740.88;5020769;28;19921;-65
2022/01/02 09:05:12;;;;;;;;;;;;;;;12.29;100.00;98727.72;5021461;28;19918;-65
2022/01/02 09:07:37;;;;;;;;;;;;;;;12.18;100.00;98715.28;5018281;28;19964;-67
2022/01/02 09:10:03;;;;;;;;;;;;;;;12.02;100.00;98709.09;5021520;28;20306;-67
2022/01/02 09:12:29;;;;;;;;;;;;;;;11.99;100.00;98711.81;5019630;28;19929;-67
2022/01/02 09:14:54;;;;;;;;;;;;;;;12.13;100.00;98712.91;5021146;28;19921;-66
2022/01/02 09:17:19;;;;;;;;;;;;;;;12.18;100.00;98717.00;5018202;28;19971;-66
2022/01/02 09:19:45;;;;;;;;;;;;;;;12.17;100.00;98707.59;5020260;28;19921;-67
2022/01/02 09:22:11;;;;;;;;;;;;;;;12.07;100.00;98708.00;5022214;28;19924;-66
2022/01/02 09:24:36;;;;;;;;;;;;;;;12.34;100.00;98707.72;5022151;28;19929;-67
2022/01/02 09:27:01;;;;;;;;;;;;;;;12.40;100.00;98679.03;5022907;28;20264;-67
2022/01/02 09:29:27;;;;;;;;;;;;;;;12.21;100.00;98667.84;5014362;28;19964;-67
2022/01/02 09:31:52;;;;;;;;;;;;;;;12.59;100.00;98670.44;5019476;28;20012;-67
2022/01/02 09:34:18;;;;;;;;;;;;;;;12.89;100.00;98687.13;5017827;28;19921;-67
2022/01/02 09:36:43;;;;;;;;;;;;;;;12.83;100.00;98707.25;5016788;28;19944;-67
2022/01/02 09:39:08;;;;;;;;;;;;;;;12.85;100.00;98706.25;5016065;28;19934;-67
2022/01/02 09:41:34;;;;;;;;;;;;;;;12.76;100.00;98704.09;5016660;28;19987;-67
2022/01/02 09:44:00;;;;;;;;;;;;;;;12.56;100.00;98715.34;5017043;28;20325;-66
2022/01/02 09:46:26;;;;;;;;;;;;;;;13.15;100.00;98714.34;5024991;28;20372;-66
2022/01/02 09:48:52;;;;;;;;;;;;;;;12.89;100.00;98701.81;5021925;28;19936;-66
2022/01/02 09:51:18;;;;;;;;;;;;;;;13.17;100.00;98698.75;5017761;28;19936;-66
2022/01/02 09:53:45;;;;;;;;;;;;;;;13.19;100.00;98700.34;5020055;28;19971;-66
2022/01/02 09:56:11;;;;;;;;;;;;;;;13.00;100.00;98709.91;5022464;28;19917;-66
2022/01/02 09:58:38;;;;;;;;;;;;;;;12.59;100.00;98710.06;5017681;28;19944;-67
2022/01/02 10:01:03;;;;;;;;;;;;;;;12.66;100.00;98700.28;5017316;28;20364;-66
2022/01/02 10:03:40;;;;;;;;;;;;;;;12.93;100.00;98668.00;5020275;28;20027;-66
2022/01/02 10:06:05;;;;;;;;;;;;;;;12.82;100.00;98649.56;5020667;28;19956;-66
2022/01/02 10:08:33;;;;;;;;;;;;;;;12.74;100.00;98649.91;5019803;28;19962;-66
2022/01/02 10:11:07;;;;;;;;;;;;;;;12.79;100.00;98618.69;5022146;28;19921;-66
2022/01/02 10:13:37;;;;;;;;;;;;;;;12.92;100.00;98617.19;5020616;28;19952;-66
2022/01/02 10:16:02;;;;;;;;;;;;;;;12.86;100.00;98603.72;5019250;28;20028;-66
2022/01/02 10:18:27;;;;;;;;;;;;;;;12.96;100.00;98626.47;5019353;28;19923;-66
2022/01/02 10:20:53;;;;;;;;;;;;;;;12.79;100.00;98623.03;5018524;28;19921;-67
2022/01/02 10:23:20;;;;;;;;;;;;;;;13.02;100.00;98609.00;5017041;28;19921;-67
2022/01/02 10:25:48;;;;;;;;;;;;;;;13.06;100.00;98611.34;5021805;28;20017;-67
2022/01/02 10:28:26;;;;;;;;;;;;;;;13.20;100.00;98610.69;5025038;28;19920;-66
2022/01/02 10:30:52;;;;;;;;;;;;;;;13.01;100.00;98625.44;5018854;28;20438;-67
2022/01/02 10:33:17;;;;;;;;;;;;;;;12.64;100.00;98620.25;5022940;28;19952;-67
2022/01/02 10:35:43;;;;;;;;;;;;;;;12.79;100.00;98602.34;5023939;28;19932;-67
2022/01/02 10:38:15;;;;;;;;;;;;;;;12.71;100.00;98588.06;5023590;28;19925;-66
2022/01/02 10:40:41;;;;;;;;;;;;;;;12.76;100.00;98598.16;5022170;28;20375;-67
2022/01/02 10:43:07;;;;;;;;;;;;;;;13.03;100.00;98580.50;5023932;28;20020;-66
2022/01/02 10:45:37;;;;;;;;;;;;;;;12.97;100.00;98589.38;5019997;28;19963;-66
2022/01/02 10:48:03;;;;;;;;;;;;;;;13.02;100.00;98588.31;5006221;28;19925;-57
2022/01/02 10:50:28;;;;;;;;;;;;;;;12.96;100.00;98610.97;5021705;28;19925;-66
2022/01/02 10:52:54;;;;;;;;;;;;;;;12.48;100.00;98625.28;5026169;28;19925;-66
2022/01/02 10:55:20;;;;;;;;;;;;;;;12.74;100.00;98623.25;5024188;28;19921;-67
2022/01/02 10:57:47;;;;;;;;;;;;;;;12.97;100.00;98596.28;5020197;28;19932;-67
2022/01/02 11:00:13;;;;;;;;;;;;;;;12.94;100.00;98586.94;5022446;28;19918;-68
2022/01/02 11:02:39;;;;;;;;;;;;;;;12.92;100.00;98586.19;5021669;28;19925;-69
2022/01/02 11:05:06;;;;;;;;;;;;;;;12.77;100.00;98592.06;5023062;28;19921;-70
2022/01/02 11:07:54;;;;;;;;;;;;;;;12.18;100.00;98608.59;5020451;28;20397;-68
2022/01/02 11:10:22;;;;;;;;;;;;;;;12.76;100.00;98614.50;5018565;28;19931;-69
2022/01/02 11:12:48;;;;;;;;;;;;;;;12.98;100.00;98613.50;5023634;28;19921;-69
2022/01/02 11:15:15;;;;;;;;;;;;;;;12.49;100.00;98619.19;5024583;28;19920;-68
2022/01/02 11:17:40;;;;;;;;;;;;;;;12.74;100.00;98610.31;5025931;28;19967;-69
2022/01/02 11:20:07;;;;;;;;;;;;;;;12.79;100.00;98598.00;5024485;28;19929;-69
2022/01/02 11:22:38;;;;;;;;;;;;;;;12.91;100.00;98587.09;5019167;28;20507;-69
2022/01/02 11:25:13;;;;;;;;;;;;;;;12.49;100.00;98580.47;5020239;28;20011;-69
2022/01/02 11:27:42;;;;;;;;;;;;;;;12.93;100.00;98580.13;5019948;28;20019;-71
2022/01/02 11:30:28;;;;;;;;;;;;;;;12.40;100.00;98575.72;5019252;28;19920;-69
2022/01/02 11:33:08;;;;;;;;;;;;;;;12.83;100.00;98562.53;5015231;28;19921;-69
2022/01/02 11:35:35;;;;;;;;;;;;;;;12.59;100.00;98574.88;5020364;28;19969;-68
2022/01/02 11:38:02;;;;;;;;;;;;;;;12.39;100.00;98591.31;5021635;28;19987;-70
2022/01/02 11:40:48;;;;;;;;;;;;;;;13.00;100.00;98590.13;5023160;28;19932;-69
2022/01/02 11:43:32;;;;;;;;;;;;;;;12.55;100.00;98602.59;5023867;28;19979;-69
2022/01/02 11:46:16;;;;;;;;;;;;;;;12.55;100.00;98594.84;5021490;28;19925;-68
2022/01/02 11:48:41;;;;;;;;;;;;;;;13.20;100.00;98582.25;5017244;28;20294;-68
2022/01/02 11:51:06;;;;;;;;;;;;;;;12.88;100.00;98584.66;5021575;28;19925;-69
2022/01/02 11:53:35;;;;;;;;;;;;;;;13.00;100.00;98590.13;5018785;28;19932;-68
2022/01/02 11:56:00;;;;;;;;;;;;;;;13.21;100.00;98589.09;5021325;28;19925;-69
2022/01/02 11:58:38;;;;;;;;;;;;;;;12.97;100.00;98597.13;5018504;28;19924;-70
2022/01/02 12:01:03;;;;;;;;;;;;;;;12.70;100.00;98606.19;5017946;28;20048;-69
2022/01/02 12:03:38;;;;;;;;;;;;;;;12.84;100.00;98603.81;5014801;28;20019;-69
2022/01/02 12:06:21;;;;;;;;;;;;;;;12.65;100.00;98592.66;5019527;28;19921;-69
2022/01/02 12:08:47;;;;;;;;;;;;;;;13.11;100.00;98598.22;5016735;28;19924;-69
2022/01/02 12:11:41;;;;;;;;;;;;;;;12.74;100.00;98605.16;5004806;28;19924;-64
2022/01/02 12:14:07;;;;;;;;;;;;;;;12.64;100.00;98603.91;5000575;28;20016;-65
2022/01/02 12:16:33;;;;;;;;;;;;;;;13.20;100.00;98597.75;5022942;28;20421;-63
2022/01/02 12:18:58;;;;;;;;;;;;;;;13.15;100.00;98597.16;5002497;28;20533;-65
2022/01/02 12:21:24;;;;;;;;;;;;;;;13.04;100.00;98576.16;5018043;28;19924;-67
2022/01/02 12:23:53;;;;;;;;;;;;;;;12.70;100.00;98573.47;5018843;28;19999;-65
2022/01/02 12:26:39;;;;;;;;;;;;;;;12.53;100.00;98571.66;5020266;28;19917;-64
2022/01/02 12:29:06;;;;;;;;;;;;;;;12.91;100.00;98594.03;5016597;28;19956;-66
2022/01/02 12:31:31;;;;;;;;;;;;;;;12.92;100.00;98595.69;5017374;28;19933;-65
2022/01/02 12:34:06;;;;;;;;;;;;;;;12.76;100.00;98608.50;5018343;28;19929;-65
2022/01/02 12:36:31;;;;;;;;;;;;;;;12.80;100.00;98604.03;5016235;28;19921;-66
2022/01/02 12:38:58;;;;;;;;;;;;;;;12.54;100.00;98600.91;5016736;28;19921;-66
2022/01/02 12:41:25;;;;;;;;;;;;;;;12.41;100.00;98598.06;5017878;28;19952;-66
2022/01/02 12:44:00;;;;;;;;;;;;;;;12.27;100.00;98600.44;5023106;28;19932;-66
2022/01/02 12:46:34;;;;;;;;;;;;;;;12.37;100.00;98596.53;5020875;28;19941;-66
2022/01/02 12:49:00;;;;;;;;;;;;;;;12.43;100.00;98601.44;5018467;28;19932;-66
2022/01/02 12:51:31;;;;;;;;;;;;;;;12.48;100.00;98601.22;5023533;28;19925;-66